EFSI/SJY METAR and TAF weather

Enter ICAO airport designator
Station Type Date Time Source
EFSI METAR 2020/03/29 12:20 UTC NOAA

EFSI 291220Z AUTO 32010KT CAVOK M00/M14 Q1019


Station Type Date Time Source
EFSI Decoded METAR 2020/03/29 12:20 UTC NOAA

Seinajoki-Ilmajok, Finland (EFSI) 62-41-37N 022-49-55E
Mar 29, 2020 - 08:20 AM EDT / 2020.03.29 1220 UTC
Wind: from the NW (320 degrees) at 12 MPH (10 KT):0
Visibility: greater than 7 mile(s):0
Temperature: 32 F (0 C)
Windchill: 23 F (-5 C):1
Dew Point: 6 F (-14 C)
Relative Humidity: 33%
Pressure (altimeter): 30.09 in. Hg (1019 hPa)
ob: EFSI 291220Z AUTO 32010KT CAVOK M00/M14 Q1019
cycle: 12

Station Type Date Time Source
EFSI TAF 2012/03/06 09:42 UTC NOAA

TAF EFSI 060830Z 0609/0621 12003KT CAVOK

Example: see airport list